createdAt,value
2023-03-31T00:02:22.966Z,50.80
2023-03-31T00:05:00.008Z,51.40
2023-03-31T00:07:27.188Z,50.80
2023-03-31T00:10:07.139Z,50.80
2023-03-31T00:12:43.652Z,50.80
2023-03-31T00:15:16.544Z,50.70
2023-03-31T00:17:43.594Z,50.80
2023-03-31T00:20:12.592Z,50.80
2023-03-31T00:22:42.475Z,50.80
2023-03-31T00:25:11.274Z,50.80
2023-03-31T00:27:44.300Z,50.80
2023-03-31T00:30:12.504Z,50.80
2023-03-31T00:32:39.264Z,50.80
2023-03-31T00:35:06.115Z,50.80
2023-03-31T00:37:38.942Z,50.80
2023-03-31T00:40:12.221Z,50.70
2023-03-31T00:42:42.604Z,50.80
2023-03-31T00:45:18.831Z,50.70
2023-03-31T00:47:49.398Z,50.70
2023-03-31T00:50:18.856Z,50.80
2023-03-31T00:52:45.670Z,50.80
2023-03-31T00:55:14.806Z,50.70
2023-03-31T00:57:41.486Z,50.70
2023-03-31T01:00:17.071Z,51.30
2023-03-31T01:02:52.971Z,50.70
2023-03-31T01:05:21.689Z,50.70
2023-03-31T01:07:48.440Z,50.70
2023-03-31T01:10:15.432Z,50.70
2023-03-31T01:12:42.819Z,51.30
2023-03-31T01:15:09.993Z,50.70
2023-03-31T01:17:44.981Z,50.60
2023-03-31T01:20:19.317Z,50.60
2023-03-31T01:22:53.000Z,50.60
2023-03-31T01:25:38.885Z,50.60
2023-03-31T01:28:06.840Z,50.60
2023-03-31T01:30:55.241Z,50.60
2023-03-31T01:33:31.150Z,50.70
2023-03-31T01:36:16.486Z,50.60
2023-03-31T01:38:43.211Z,50.70
2023-03-31T01:41:21.450Z,50.70
2023-03-31T01:43:58.207Z,50.70
2023-03-31T01:46:29.116Z,50.70
2023-03-31T01:49:13.110Z,50.70
2023-03-31T01:51:46.502Z,50.70
2023-03-31T01:54:39.586Z,50.70
2023-03-31T01:57:13.987Z,50.70
2023-03-31T01:59:40.799Z,50.70
2023-03-31T02:02:08.631Z,50.70
2023-03-31T02:04:37.619Z,50.70
2023-03-31T02:07:06.162Z,50.60
2023-03-31T02:09:34.258Z,50.60
2023-03-31T02:12:01.278Z,50.50
2023-03-31T02:14:28.781Z,50.60
2023-03-31T02:16:58.450Z,50.50
2023-03-31T02:19:26.969Z,50.60
2023-03-31T02:22:00.003Z,50.50
2023-03-31T02:24:26.749Z,50.50
2023-03-31T02:27:13.776Z,50.50
2023-03-31T02:29:40.434Z,50.50
2023-03-31T02:32:12.566Z,50.50
2023-03-31T02:34:39.230Z,50.50
2023-03-31T02:37:09.021Z,50.50
2023-03-31T02:39:42.094Z,50.50
2023-03-31T02:42:09.281Z,50.40
2023-03-31T02:44:36.525Z,50.50
2023-03-31T02:47:03.992Z,50.50
2023-03-31T02:49:31.683Z,50.40
2023-03-31T02:52:13.877Z,50.40
2023-03-31T02:54:43.795Z,50.50
2023-03-31T02:57:29.253Z,50.50
2023-03-31T03:00:12.858Z,50.50
2023-03-31T03:02:45.702Z,50.50
2023-03-31T03:05:20.426Z,50.40
2023-03-31T03:07:59.042Z,50.40
2023-03-31T03:10:25.862Z,50.50
2023-03-31T03:13:03.399Z,50.40
2023-03-31T03:15:30.068Z,50.40
2023-03-31T03:17:56.842Z,50.40
2023-03-31T03:20:23.654Z,50.40
2023-03-31T03:22:56.553Z,50.40
2023-03-31T03:25:24.488Z,50.40
2023-03-31T03:27:53.109Z,50.40
2023-03-31T03:30:19.841Z,50.40
2023-03-31T03:32:46.759Z,50.30
2023-03-31T03:35:13.510Z,50.30
2023-03-31T03:37:40.188Z,50.30
2023-03-31T03:40:13.035Z,50.30
2023-03-31T03:42:42.813Z,50.40
2023-03-31T03:45:15.845Z,50.30
2023-03-31T03:47:42.586Z,50.30
2023-03-31T03:50:09.785Z,51.00
2023-03-31T03:52:36.516Z,50.40
2023-03-31T03:55:03.578Z,50.40
2023-03-31T03:57:30.373Z,50.40
2023-03-31T03:59:57.174Z,50.40
2023-03-31T04:02:25.551Z,50.40
2023-03-31T04:04:53.885Z,50.40
2023-03-31T04:07:20.741Z,50.30
2023-03-31T04:09:47.444Z,50.40
2023-03-31T04:12:14.144Z,50.40
2023-03-31T04:14:41.513Z,50.30
2023-03-31T04:17:10.681Z,50.40
2023-03-31T04:19:38.592Z,50.40
2023-03-31T04:22:05.295Z,50.40
2023-03-31T04:24:38.770Z,50.40
2023-03-31T04:27:08.578Z,50.40
2023-03-31T04:29:37.305Z,50.40
2023-03-31T04:32:04.360Z,50.50
2023-03-31T04:34:37.044Z,50.50
2023-03-31T04:37:03.851Z,50.50
2023-03-31T04:39:33.436Z,50.50
2023-03-31T04:42:00.917Z,50.60
2023-03-31T04:44:37.010Z,50.60
2023-03-31T04:47:03.992Z,50.60
2023-03-31T04:49:33.645Z,50.50
2023-03-31T04:52:00.386Z,50.70
2023-03-31T04:54:27.083Z,50.60
2023-03-31T04:56:53.869Z,51.30
2023-03-31T04:59:20.617Z,50.70
2023-03-31T05:01:48.244Z,50.60
2023-03-31T05:04:14.927Z,50.60
2023-03-31T05:06:41.684Z,50.60
2023-03-31T05:09:09.798Z,50.60
2023-03-31T05:11:36.806Z,50.80
2023-03-31T05:14:03.684Z,51.00
2023-03-31T05:16:30.764Z,51.40
2023-03-31T05:18:57.787Z,51.60
2023-03-31T05:21:24.706Z,51.20
2023-03-31T05:23:54.532Z,52.00
2023-03-31T05:26:25.095Z,51.40
2023-03-31T05:28:52.331Z,51.40
2023-03-31T05:31:19.171Z,52.00
2023-03-31T05:33:46.163Z,51.30
2023-03-31T05:36:13.603Z,51.30
2023-03-31T05:38:40.501Z,51.30
2023-03-31T05:41:09.547Z,51.20
2023-03-31T05:43:36.824Z,51.30
2023-03-31T05:46:03.755Z,51.20
2023-03-31T05:48:30.579Z,51.10
2023-03-31T05:51:00.874Z,51.10
2023-03-31T05:53:34.228Z,51.10
2023-03-31T05:56:02.068Z,51.20
2023-03-31T05:58:29.172Z,51.10
2023-03-31T06:01:06.698Z,51.10
2023-03-31T06:03:34.279Z,51.10
2023-03-31T06:06:02.099Z,51.10
2023-03-31T06:08:29.265Z,51.10
2023-03-31T06:10:56.015Z,51.10
2023-03-31T06:13:22.858Z,51.10
2023-03-31T06:15:53.673Z,51.10
2023-03-31T06:18:20.653Z,51.10
2023-03-31T06:20:47.375Z,51.10
2023-03-31T06:23:14.150Z,51.10
2023-03-31T06:25:50.236Z,51.10
2023-03-31T06:28:18.578Z,51.10
2023-03-31T06:30:45.605Z,51.20
2023-03-31T06:33:17.264Z,51.10
2023-03-31T06:35:47.066Z,51.10
2023-03-31T06:38:13.768Z,51.20
2023-03-31T06:40:40.488Z,51.10
2023-03-31T06:43:07.260Z,51.20
2023-03-31T06:45:35.185Z,51.10
2023-03-31T06:48:01.936Z,51.20
2023-03-31T06:50:28.758Z,51.20
2023-03-31T06:52:55.985Z,51.20
2023-03-31T06:55:29.122Z,51.20
2023-03-31T06:58:02.461Z,51.30
2023-03-31T07:00:29.133Z,51.30
2023-03-31T07:02:55.949Z,51.40
2023-03-31T07:05:28.723Z,51.40
2023-03-31T07:07:55.825Z,51.40
2023-03-31T07:10:29.283Z,51.50
2023-03-31T07:12:56.216Z,51.40
2023-03-31T07:15:23.051Z,51.40
2023-03-31T07:17:51.485Z,51.60
2023-03-31T07:20:18.526Z,51.50
2023-03-31T07:22:45.685Z,51.60
2023-03-31T07:25:12.906Z,51.60
2023-03-31T07:27:44.950Z,51.60
2023-03-31T07:30:13.464Z,51.60
2023-03-31T07:32:42.275Z,51.60
2023-03-31T07:35:10.448Z,51.60
2023-03-31T07:38:10.434Z,51.60
2023-03-31T07:41:07.756Z,51.60
2023-03-31T07:43:36.014Z,51.60
2023-03-31T07:46:02.805Z,51.60
2023-03-31T07:48:32.314Z,51.60
2023-03-31T07:51:15.261Z,51.60
2023-03-31T07:53:43.537Z,51.60
2023-03-31T07:56:10.878Z,51.60
2023-03-31T07:58:39.722Z,51.60
2023-03-31T08:01:07.366Z,51.50
2023-03-31T08:03:41.150Z,51.50
2023-03-31T08:06:11.564Z,51.60
2023-03-31T08:11:35.252Z,51.60
2023-03-31T08:14:02.573Z,51.60
2023-03-31T08:16:32.904Z,51.60
2023-03-31T08:18:59.884Z,51.60
2023-03-31T08:21:26.644Z,51.70
2023-03-31T08:24:02.589Z,51.70
2023-03-31T08:26:35.830Z,51.70
2023-03-31T08:29:16.445Z,51.70
2023-03-31T08:32:55.025Z,51.70
2023-03-31T08:35:47.370Z,51.70
2023-03-31T08:38:19.124Z,51.70
2023-03-31T08:46:34.419Z,51.60
2023-03-31T08:49:17.982Z,51.70
2023-03-31T08:51:49.063Z,51.70
2023-03-31T08:54:16.034Z,51.70
2023-03-31T08:56:43.752Z,51.70
2023-03-31T08:59:41.125Z,51.70
2023-03-31T09:02:12.007Z,51.70
2023-03-31T09:07:45.677Z,51.70
2023-03-31T09:10:24.196Z,51.70
2023-03-31T09:12:59.610Z,51.70
2023-03-31T09:15:27.182Z,51.70
2023-03-31T09:17:56.642Z,51.70
2023-03-31T09:20:28.653Z,51.70
2023-03-31T09:23:20.141Z,51.70
2023-03-31T09:25:50.409Z,51.70
2023-03-31T09:28:25.453Z,51.70
2023-03-31T09:33:38.526Z,51.70
2023-03-31T09:36:09.369Z,51.70
2023-03-31T09:38:36.371Z,51.70
2023-03-31T09:43:52.275Z,51.80
2023-03-31T09:46:29.803Z,51.60
2023-03-31T09:49:04.357Z,51.30
2023-03-31T09:51:37.445Z,51.10
2023-03-31T09:54:07.917Z,51.10
2023-03-31T09:56:37.784Z,50.90
2023-03-31T09:59:04.486Z,50.80
2023-03-31T10:01:31.702Z,50.30
2023-03-31T10:03:58.509Z,50.50
2023-03-31T10:09:09.519Z,50.50
2023-03-31T10:11:42.555Z,50.70
2023-03-31T10:14:18.604Z,50.80
2023-03-31T10:17:02.430Z,50.90
2023-03-31T10:19:30.700Z,51.70
2023-03-31T10:21:57.816Z,51.00
2023-03-31T10:24:25.349Z,51.20
2023-03-31T10:26:56.530Z,51.20
2023-03-31T10:29:33.206Z,51.40
2023-03-31T10:32:10.156Z,51.40
2023-03-31T10:34:38.044Z,51.50
2023-03-31T10:37:07.846Z,51.50
2023-03-31T10:39:34.633Z,51.50
2023-03-31T10:42:04.449Z,51.60
2023-03-31T10:44:37.881Z,51.80
2023-03-31T10:47:13.956Z,51.60
2023-03-31T10:49:40.933Z,51.60
2023-03-31T10:52:17.829Z,51.60
2023-03-31T10:54:53.200Z,51.70
2023-03-31T10:57:20.079Z,51.60
2023-03-31T11:00:05.921Z,51.60
2023-03-31T11:02:32.854Z,51.60
2023-03-31T11:05:05.864Z,51.60
2023-03-31T11:08:06.836Z,51.70
2023-03-31T11:10:53.369Z,51.60
2023-03-31T11:13:34.623Z,51.70
2023-03-31T11:16:16.690Z,51.70
2023-03-31T11:19:06.867Z,51.70
2023-03-31T11:21:47.925Z,52.30
2023-03-31T11:24:22.009Z,52.00
2023-03-31T11:27:17.174Z,52.00
2023-03-31T11:30:10.653Z,52.60
2023-03-31T11:32:48.278Z,52.00
2023-03-31T11:35:33.281Z,52.00
2023-03-31T11:38:25.771Z,52.10
2023-03-31T11:44:25.106Z,52.10
2023-03-31T11:47:00.156Z,52.00
2023-03-31T11:49:43.273Z,52.00
2023-03-31T11:52:42.772Z,52.00
2023-03-31T12:01:05.222Z,52.00
2023-03-31T12:04:13.404Z,52.00
2023-03-31T12:07:11.048Z,52.00
2023-03-31T12:12:36.444Z,52.10
2023-03-31T12:18:17.357Z,52.10
2023-03-31T12:23:54.372Z,52.00
2023-03-31T12:33:07.021Z,52.10
2023-03-31T12:35:56.073Z,52.10
2023-03-31T12:41:56.162Z,52.00
2023-03-31T12:44:35.730Z,52.20
2023-03-31T12:47:41.947Z,52.10
2023-03-31T12:50:38.440Z,52.30
2023-03-31T12:53:48.302Z,52.20
2023-03-31T12:59:26.512Z,52.20
2023-03-31T13:02:18.728Z,52.80
2023-03-31T13:04:50.233Z,52.20
2023-03-31T13:07:29.181Z,52.20
2023-03-31T13:24:41.592Z,52.20
2023-03-31T13:27:28.251Z,52.30
2023-03-31T13:29:56.925Z,52.20
2023-03-31T13:32:26.793Z,52.20
2023-03-31T13:35:13.025Z,51.90
2023-03-31T13:38:43.511Z,51.50
2023-03-31T13:41:48.918Z,51.10
2023-03-31T13:44:21.655Z,50.90
2023-03-31T13:46:54.500Z,51.10
2023-03-31T13:49:28.117Z,51.00
2023-03-31T13:51:54.845Z,51.30
2023-03-31T13:54:30.812Z,51.40
2023-03-31T13:57:03.632Z,51.60
2023-03-31T13:59:41.917Z,51.80
2023-03-31T14:02:27.196Z,51.80
2023-03-31T14:04:54.201Z,51.90
2023-03-31T14:07:34.919Z,51.90
2023-03-31T14:10:03.040Z,51.80
2023-03-31T14:12:34.148Z,51.90
2023-03-31T14:15:00.943Z,49.90
2023-03-31T14:17:31.423Z,51.40
2023-03-31T14:20:16.870Z,52.20
2023-03-31T14:22:58.967Z,52.20
2023-03-31T14:25:48.965Z,52.00
2023-03-31T14:28:34.768Z,52.00
2023-03-31T14:31:20.918Z,52.00
2023-03-31T14:33:47.688Z,52.10
2023-03-31T14:36:19.905Z,52.00
2023-03-31T14:38:46.609Z,51.80
2023-03-31T14:41:29.913Z,51.70
2023-03-31T14:43:57.734Z,51.60
2023-03-31T14:46:24.486Z,51.20
2023-03-31T14:48:51.290Z,51.40
2023-03-31T14:51:19.064Z,51.60
2023-03-31T14:53:45.787Z,51.60
2023-03-31T14:56:13.179Z,51.50
2023-03-31T14:58:40.622Z,51.50
2023-03-31T15:01:07.924Z,51.50
2023-03-31T15:03:36.363Z,51.50
2023-03-31T15:06:03.330Z,51.40
2023-03-31T15:08:30.994Z,51.20
2023-03-31T15:11:09.708Z,51.40
2023-03-31T15:16:21.809Z,51.70
2023-03-31T15:18:48.554Z,51.80
2023-03-31T15:21:22.044Z,51.70
2023-03-31T15:23:52.176Z,51.80
2023-03-31T15:26:22.558Z,51.70
2023-03-31T15:28:55.980Z,51.80
2023-03-31T15:31:22.828Z,51.80
2023-03-31T15:33:49.880Z,51.80
2023-03-31T15:36:16.732Z,51.80
2023-03-31T15:38:55.305Z,51.90
2023-03-31T15:41:22.904Z,51.90
2023-03-31T15:43:53.140Z,51.90
2023-03-31T15:46:20.816Z,51.90
2023-03-31T15:48:53.048Z,52.00
2023-03-31T15:51:21.770Z,52.00
2023-03-31T15:53:49.089Z,52.10
2023-03-31T15:56:25.502Z,52.00
2023-03-31T15:58:56.489Z,52.10
2023-03-31T16:01:24.009Z,52.00
2023-03-31T16:03:54.229Z,52.10
2023-03-31T16:06:20.986Z,52.10
2023-03-31T16:08:48.917Z,52.10
2023-03-31T16:11:17.488Z,52.10
2023-03-31T16:13:45.323Z,52.20
2023-03-31T16:16:12.902Z,52.10
2023-03-31T16:18:40.700Z,52.20
2023-03-31T16:21:07.391Z,52.20
2023-03-31T16:23:34.725Z,52.30
2023-03-31T16:26:01.489Z,52.30
2023-03-31T16:28:36.073Z,52.40
2023-03-31T16:31:03.062Z,53.10
2023-03-31T16:33:30.987Z,52.50
2023-03-31T16:35:58.832Z,52.60
2023-03-31T16:38:26.866Z,52.60
2023-03-31T16:40:54.653Z,52.70
2023-03-31T16:43:22.136Z,52.70
2023-03-31T16:45:52.640Z,52.80
2023-03-31T16:48:20.029Z,52.80
2023-03-31T16:50:47.146Z,52.20
2023-03-31T16:53:20.217Z,52.80
2023-03-31T16:55:47.373Z,52.70
2023-03-31T16:58:14.092Z,52.70
2023-03-31T17:00:42.040Z,52.60
2023-03-31T17:03:10.209Z,52.60
2023-03-31T17:05:48.168Z,52.40
2023-03-31T17:08:15.023Z,52.10
2023-03-31T17:10:42.736Z,51.80
2023-03-31T17:13:10.542Z,51.70
2023-03-31T17:15:39.887Z,51.20
2023-03-31T17:18:07.418Z,51.70
2023-03-31T17:20:34.851Z,50.90
2023-03-31T17:23:02.408Z,51.40
2023-03-31T17:25:29.353Z,50.80
2023-03-31T17:27:56.353Z,51.40
2023-03-31T17:30:23.310Z,51.70
2023-03-31T17:32:52.242Z,51.90
2023-03-31T17:35:22.625Z,52.20
2023-03-31T17:37:53.803Z,52.20
2023-03-31T17:40:21.454Z,52.30
2023-03-31T17:42:48.208Z,52.20
2023-03-31T17:45:15.028Z,52.30
2023-03-31T17:47:42.678Z,52.30
2023-03-31T17:50:09.731Z,52.40
2023-03-31T17:52:36.606Z,52.40
2023-03-31T17:55:04.289Z,52.20
2023-03-31T17:57:31.799Z,52.90
2023-03-31T17:59:59.680Z,52.20
2023-03-31T18:02:26.450Z,52.30
2023-03-31T18:04:53.409Z,52.10
2023-03-31T18:07:23.125Z,52.20
2023-03-31T18:09:49.884Z,52.10
2023-03-31T18:12:16.675Z,52.20
2023-03-31T18:14:43.441Z,52.10
2023-03-31T18:17:14.832Z,52.10
2023-03-31T18:19:42.420Z,52.20
2023-03-31T18:22:12.134Z,52.10
2023-03-31T18:24:40.113Z,52.20
2023-03-31T18:27:06.985Z,52.10
2023-03-31T18:29:33.665Z,52.20
2023-03-31T18:32:00.484Z,52.20
2023-03-31T18:34:28.845Z,52.10
2023-03-31T18:36:55.667Z,52.20
2023-03-31T18:39:22.436Z,52.20
2023-03-31T18:41:49.210Z,52.10
2023-03-31T18:44:18.825Z,52.80
2023-03-31T18:46:45.796Z,52.20
2023-03-31T18:49:12.908Z,52.20
2023-03-31T18:51:39.635Z,52.20
2023-03-31T18:54:06.486Z,52.20
2023-03-31T18:56:33.395Z,52.20
2023-03-31T18:59:00.139Z,52.20
2023-03-31T19:01:27.336Z,52.20
2023-03-31T19:03:54.227Z,52.20
2023-03-31T19:06:22.548Z,52.20
2023-03-31T19:08:54.619Z,52.20
2023-03-31T19:11:21.421Z,52.10
2023-03-31T19:13:48.118Z,52.10
2023-03-31T19:16:18.727Z,52.80
2023-03-31T19:18:45.540Z,52.20
2023-03-31T19:21:13.182Z,52.10
2023-03-31T19:23:39.962Z,52.20
2023-03-31T19:26:07.267Z,52.20
2023-03-31T19:28:34.214Z,52.10
2023-03-31T19:31:05.471Z,52.10
2023-03-31T19:33:32.227Z,52.10
2023-03-31T19:35:59.176Z,52.10
2023-03-31T19:38:27.195Z,52.10
2023-03-31T19:40:53.968Z,52.10
2023-03-31T19:43:21.615Z,52.10
2023-03-31T19:45:48.642Z,52.10
2023-03-31T19:48:15.712Z,52.10
2023-03-31T19:50:45.907Z,52.10
2023-03-31T19:53:13.774Z,52.10
2023-03-31T19:55:42.184Z,52.10
2023-03-31T19:58:09.193Z,52.10
2023-03-31T20:00:35.968Z,52.10
2023-03-31T20:03:02.873Z,52.10
2023-03-31T20:05:31.447Z,52.10
2023-03-31T20:07:58.826Z,52.10
2023-03-31T20:10:28.416Z,52.10
2023-03-31T20:12:56.799Z,52.10
2023-03-31T20:15:24.168Z,52.10
2023-03-31T20:17:50.931Z,52.20
2023-03-31T20:20:18.387Z,52.10
2023-03-31T20:22:45.093Z,52.10
2023-03-31T20:25:12.286Z,52.10
2023-03-31T20:27:39.834Z,52.10
2023-03-31T20:30:09.407Z,52.10
2023-03-31T20:32:36.540Z,52.10
2023-03-31T20:35:06.612Z,52.10
2023-03-31T20:37:33.483Z,52.10
2023-03-31T20:40:00.230Z,52.70
2023-03-31T20:42:27.010Z,52.00
2023-03-31T20:44:53.701Z,52.10
2023-03-31T20:47:20.595Z,52.10
2023-03-31T20:49:47.629Z,52.10
2023-03-31T20:52:14.448Z,52.10
2023-03-31T20:54:41.285Z,52.10
2023-03-31T20:57:08.081Z,52.10
2023-03-31T20:59:34.808Z,52.10
2023-03-31T21:02:02.316Z,52.10
2023-03-31T21:04:29.090Z,52.00
2023-03-31T21:06:56.181Z,52.00
2023-03-31T21:09:24.030Z,52.00
2023-03-31T21:11:51.571Z,51.90
2023-03-31T21:14:18.385Z,52.00
2023-03-31T21:16:45.116Z,52.00
2023-03-31T21:19:11.914Z,51.90
2023-03-31T21:21:41.359Z,51.90
2023-03-31T21:24:09.303Z,51.90
2023-03-31T21:26:36.084Z,51.90
2023-03-31T21:29:03.011Z,51.80
2023-03-31T21:31:29.701Z,51.80
2023-03-31T21:33:57.769Z,51.70
2023-03-31T21:36:25.025Z,51.80
2023-03-31T21:38:55.717Z,51.70
2023-03-31T21:41:26.380Z,51.70
2023-03-31T21:43:53.627Z,51.70
2023-03-31T21:46:27.491Z,51.70
2023-03-31T21:48:54.528Z,51.70
2023-03-31T21:51:22.190Z,51.70
2023-03-31T21:53:49.527Z,51.70
2023-03-31T21:56:16.514Z,51.70
2023-03-31T21:58:43.242Z,51.70
2023-03-31T22:01:09.953Z,51.70
2023-03-31T22:03:38.461Z,51.70
2023-03-31T22:06:07.183Z,51.70
2023-03-31T22:08:34.087Z,51.70
2023-03-31T22:11:00.768Z,51.60
2023-03-31T22:13:27.745Z,51.70
2023-03-31T22:15:54.582Z,51.60
2023-03-31T22:18:22.106Z,51.60
2023-03-31T22:20:49.082Z,51.70
2023-03-31T22:23:15.829Z,51.60
2023-03-31T22:25:42.512Z,51.60
2023-03-31T22:28:09.343Z,51.60
2023-03-31T22:30:36.592Z,51.60
2023-03-31T22:33:03.309Z,52.20
2023-03-31T22:35:29.959Z,51.60
2023-03-31T22:37:56.566Z,51.60
2023-03-31T22:40:23.780Z,51.60
2023-03-31T22:42:50.448Z,51.60
2023-03-31T22:45:17.023Z,51.60
2023-03-31T22:47:43.691Z,51.60
2023-03-31T22:50:10.534Z,51.60
2023-03-31T22:52:37.296Z,51.70
2023-03-31T22:55:04.092Z,51.90
2023-03-31T22:57:31.089Z,51.70
2023-03-31T22:59:57.732Z,51.70
2023-03-31T23:02:24.423Z,52.40
2023-03-31T23:04:51.295Z,51.70
2023-03-31T23:07:17.931Z,51.70
2023-03-31T23:09:44.552Z,51.70
2023-03-31T23:12:11.175Z,51.70
2023-03-31T23:14:37.906Z,51.80
2023-03-31T23:17:04.535Z,51.70
2023-03-31T23:19:31.962Z,51.80
2023-03-31T23:21:58.555Z,51.70
2023-03-31T23:24:25.368Z,51.80
2023-03-31T23:26:52.142Z,51.70
2023-03-31T23:29:18.786Z,51.80
2023-03-31T23:31:45.465Z,51.70
2023-03-31T23:34:13.917Z,51.80
2023-03-31T23:36:40.587Z,51.80
2023-03-31T23:39:07.269Z,51.70
2023-03-31T23:41:33.877Z,51.70
2023-03-31T23:44:00.636Z,51.70
2023-03-31T23:46:27.357Z,51.60
2023-03-31T23:48:54.105Z,51.60
2023-03-31T23:51:20.766Z,51.70
2023-03-31T23:53:47.474Z,51.60
2023-03-31T23:56:14.202Z,51.70
2023-03-31T23:58:42.955Z,52.20
